createdAt,value
2023-01-06T00:02:48.495Z,5.40
2023-01-06T00:07:09.965Z,5.30
2023-01-06T00:11:32.910Z,5.30
2023-01-06T00:15:55.646Z,5.20
2023-01-06T00:20:17.742Z,5.20
2023-01-06T00:24:39.715Z,5.30
2023-01-06T00:29:01.652Z,5.30
2023-01-06T00:33:24.720Z,5.40
2023-01-06T00:37:46.370Z,5.40
2023-01-06T00:42:09.426Z,5.50
2023-01-06T00:46:34.181Z,5.60
2023-01-06T00:51:01.281Z,5.80
2023-01-06T00:55:23.189Z,5.90
2023-01-06T00:59:45.084Z,6.00
2023-01-06T01:04:08.256Z,6.00
2023-01-06T01:08:30.523Z,6.10
2023-01-06T01:12:53.559Z,6.10
2023-01-06T01:17:19.555Z,6.20
2023-01-06T01:21:41.603Z,6.20
2023-01-06T01:26:03.234Z,6.30
2023-01-06T01:30:25.250Z,6.40
2023-01-06T01:34:47.348Z,6.40
2023-01-06T01:39:11.083Z,6.50
2023-01-06T01:43:49.039Z,6.60
2023-01-06T01:48:35.545Z,6.60
2023-01-06T01:53:05.945Z,6.60
2023-01-06T01:57:39.383Z,6.60
2023-01-06T02:02:01.825Z,6.70
2023-01-06T02:06:26.042Z,6.70
2023-01-06T02:10:47.736Z,6.80
2023-01-06T02:15:31.889Z,6.80
2023-01-06T02:20:47.057Z,6.80
2023-01-06T02:25:11.948Z,6.80
2023-01-06T02:30:04.897Z,6.90
2023-01-06T02:34:47.532Z,6.90
2023-01-06T02:39:21.535Z,6.90
2023-01-06T02:43:51.128Z,6.90
2023-01-06T02:48:34.246Z,6.90
2023-01-06T02:53:07.110Z,7.00
2023-01-06T02:57:40.778Z,7.00
2023-01-06T03:02:04.759Z,7.00
2023-01-06T03:06:31.963Z,7.10
2023-01-06T03:10:56.407Z,7.10
2023-01-06T03:15:20.696Z,7.20
2023-01-06T03:19:44.817Z,7.20
2023-01-06T03:24:10.631Z,7.20
2023-01-06T03:28:34.862Z,7.20
2023-01-06T03:33:29.092Z,7.30
2023-01-06T03:37:56.743Z,7.30
2023-01-06T03:42:55.930Z,7.40
2023-01-06T03:47:52.549Z,7.40
2023-01-06T03:52:29.756Z,7.40
2023-01-06T03:57:24.426Z,7.40
2023-01-06T04:01:48.533Z,7.50
2023-01-06T04:06:10.999Z,7.50
2023-01-06T04:10:33.656Z,7.50
2023-01-06T04:14:56.158Z,7.60
2023-01-06T04:19:18.245Z,7.60
2023-01-06T04:23:40.251Z,7.70
2023-01-06T04:28:02.863Z,7.60
2023-01-06T04:32:24.956Z,7.70
2023-01-06T04:36:47.623Z,7.70
2023-01-06T04:41:09.482Z,7.80
2023-01-06T04:45:31.938Z,7.80
2023-01-06T04:49:53.949Z,7.80
2023-01-06T04:54:15.872Z,7.60
2023-01-06T04:58:39.001Z,7.60
2023-01-06T05:03:00.701Z,7.60
2023-01-06T05:07:22.568Z,7.70
2023-01-06T05:11:44.388Z,7.70
2023-01-06T05:16:34.403Z,7.70
2023-01-06T05:20:56.272Z,7.70
2023-01-06T05:25:18.212Z,7.70
2023-01-06T05:29:40.208Z,7.70
2023-01-06T05:34:02.041Z,7.70
2023-01-06T05:38:23.899Z,7.70
2023-01-06T05:42:45.959Z,7.80
2023-01-06T05:47:07.893Z,7.80
2023-01-06T05:51:30.135Z,7.80
2023-01-06T05:55:51.671Z,7.80
2023-01-06T06:00:14.286Z,7.80
2023-01-06T06:04:35.921Z,7.90
2023-01-06T06:08:58.685Z,7.90
2023-01-06T06:13:20.477Z,7.90
2023-01-06T06:17:42.454Z,8.00
2023-01-06T06:22:04.596Z,8.00
2023-01-06T06:26:27.749Z,8.00
2023-01-06T06:30:50.169Z,8.10
2023-01-06T06:35:11.941Z,8.20
2023-01-06T06:39:34.694Z,8.20
2023-01-06T06:43:56.785Z,8.30
2023-01-06T06:48:19.254Z,8.30
2023-01-06T06:52:41.424Z,8.40
2023-01-06T06:57:04.304Z,8.40
2023-01-06T07:01:26.263Z,8.40
2023-01-06T07:05:49.776Z,8.40
2023-01-06T07:10:16.765Z,8.40
2023-01-06T07:14:38.733Z,8.40
2023-01-06T07:19:00.781Z,8.40
2023-01-06T07:23:24.256Z,8.40
2023-01-06T07:27:46.283Z,8.50
2023-01-06T07:32:10.135Z,8.50
2023-01-06T07:36:31.895Z,8.60
2023-01-06T07:40:58.621Z,8.60
2023-01-06T07:45:20.267Z,8.70
2023-01-06T07:49:42.238Z,8.80
2023-01-06T07:54:04.371Z,8.90
2023-01-06T07:58:26.116Z,9.00
2023-01-06T08:02:48.219Z,9.10
2023-01-06T08:07:10.588Z,9.10
2023-01-06T08:11:32.856Z,9.10
2023-01-06T08:15:55.519Z,9.20
2023-01-06T08:20:19.802Z,9.20
2023-01-06T08:24:41.509Z,9.30
2023-01-06T08:29:04.103Z,9.40
2023-01-06T08:33:27.106Z,9.50
2023-01-06T08:37:48.975Z,9.60
2023-01-06T08:42:11.809Z,9.70
2023-01-06T08:46:34.751Z,9.80
2023-01-06T08:51:02.998Z,10.00
2023-01-06T08:55:24.897Z,10.10
2023-01-06T08:59:47.955Z,10.20
2023-01-06T09:04:11.232Z,10.30
2023-01-06T09:08:33.432Z,10.40
2023-01-06T09:12:55.156Z,10.40
2023-01-06T09:17:17.274Z,10.40
2023-01-06T09:21:42.850Z,10.40
2023-01-06T09:26:04.686Z,10.60
2023-01-06T09:30:26.661Z,10.80
2023-01-06T09:34:48.726Z,11.10
2023-01-06T09:39:10.537Z,11.80
2023-01-06T09:43:43.128Z,11.90
2023-01-06T09:48:14.003Z,11.60
2023-01-06T09:52:48.387Z,11.20
2023-01-06T09:57:22.459Z,11.20
2023-01-06T10:01:48.943Z,11.30
2023-01-06T10:06:41.893Z,11.20
2023-01-06T10:11:59.631Z,11.20
2023-01-06T10:17:10.985Z,11.20
2023-01-06T10:21:46.611Z,11.20
2023-01-06T10:26:14.271Z,11.10
2023-01-06T10:30:53.331Z,11.10
2023-01-06T10:35:17.739Z,11.00
2023-01-06T10:39:42.845Z,11.10
2023-01-06T10:44:05.396Z,11.10
2023-01-06T10:48:30.718Z,11.10
2023-01-06T10:52:53.197Z,11.10
2023-01-06T10:57:29.844Z,11.10
2023-01-06T11:01:55.901Z,11.20
2023-01-06T11:06:30.500Z,11.30
2023-01-06T11:10:57.480Z,11.40
2023-01-06T11:15:25.701Z,11.60
2023-01-06T11:20:14.272Z,11.80
2023-01-06T11:24:51.765Z,11.90
2023-01-06T11:29:35.397Z,11.80
2023-01-06T11:34:01.349Z,11.90
2023-01-06T11:38:23.897Z,12.00
2023-01-06T11:42:51.315Z,11.90
2023-01-06T11:47:21.035Z,11.80
2023-01-06T11:51:42.411Z,11.90
2023-01-06T11:56:06.870Z,11.80
2023-01-06T12:01:06.428Z,11.60
2023-01-06T12:06:04.435Z,11.40
2023-01-06T12:10:33.360Z,11.40
2023-01-06T12:14:56.053Z,11.30
2023-01-06T12:19:46.039Z,11.20
2023-01-06T12:24:11.894Z,11.20
2023-01-06T12:28:41.918Z,11.00
2023-01-06T12:33:52.361Z,11.10
2023-01-06T12:38:32.691Z,11.20
2023-01-06T12:43:22.489Z,11.30
2023-01-06T12:47:54.146Z,11.10
2023-01-06T12:52:35.207Z,11.00
2023-01-06T12:57:17.117Z,10.80
2023-01-06T13:01:57.459Z,10.70
2023-01-06T13:07:28.301Z,10.60
2023-01-06T13:12:26.977Z,10.60
2023-01-06T13:17:16.157Z,10.60
2023-01-06T13:21:39.563Z,10.80
2023-01-06T13:26:47.985Z,10.90
2023-01-06T13:31:29.384Z,11.00
2023-01-06T13:36:12.263Z,11.20
2023-01-06T13:40:39.951Z,11.20
2023-01-06T13:45:05.316Z,11.20
2023-01-06T13:49:27.489Z,11.10
2023-01-06T13:53:50.406Z,11.00
2023-01-06T13:58:24.330Z,11.00
2023-01-06T14:02:46.137Z,10.90
2023-01-06T14:07:08.410Z,10.80
2023-01-06T14:11:37.827Z,10.90
2023-01-06T14:16:11.778Z,10.80
2023-01-06T14:20:37.581Z,10.70
2023-01-06T14:25:06.471Z,10.70
2023-01-06T14:29:40.775Z,10.70
2023-01-06T14:34:04.556Z,10.70
2023-01-06T14:38:57.947Z,10.60
2023-01-06T14:43:50.365Z,10.50
2023-01-06T14:48:17.025Z,10.50
2023-01-06T14:52:50.516Z,10.40
2023-01-06T14:57:32.712Z,10.30
2023-01-06T15:02:01.354Z,10.30
2023-01-06T15:06:25.375Z,10.20
2023-01-06T15:10:52.614Z,10.10
2023-01-06T15:15:27.005Z,10.10
2023-01-06T15:19:52.070Z,10.00
2023-01-06T15:24:35.490Z,10.00
2023-01-06T15:29:11.566Z,9.90
2023-01-06T15:33:40.889Z,9.80
2023-01-06T15:38:06.483Z,9.70
2023-01-06T15:42:28.568Z,9.70
2023-01-06T15:46:52.215Z,9.70
2023-01-06T15:51:21.049Z,9.60
2023-01-06T15:55:48.467Z,9.50
2023-01-06T16:00:23.694Z,9.40
2023-01-06T16:04:51.074Z,9.30
2023-01-06T16:09:35.651Z,9.20
2023-01-06T16:13:58.732Z,9.20
2023-01-06T16:18:36.117Z,9.20
2023-01-06T16:22:58.502Z,9.20
2023-01-06T16:27:27.281Z,9.10
2023-01-06T16:31:49.345Z,9.00
2023-01-06T16:36:14.571Z,9.00
2023-01-06T16:40:36.356Z,9.10
2023-01-06T16:45:06.926Z,9.10
2023-01-06T16:49:30.840Z,9.10
2023-01-06T16:53:55.076Z,9.10
2023-01-06T16:58:21.625Z,9.10
2023-01-06T17:02:43.958Z,9.10
2023-01-06T17:07:13.986Z,9.00
2023-01-06T17:11:38.264Z,9.00
2023-01-06T17:16:02.570Z,9.00
2023-01-06T17:20:25.623Z,9.00
2023-01-06T17:24:47.435Z,9.00
2023-01-06T17:29:17.129Z,8.90
2023-01-06T17:33:39.026Z,8.90
2023-01-06T17:38:17.558Z,8.90
2023-01-06T17:42:42.592Z,8.80
2023-01-06T17:47:16.474Z,8.80
2023-01-06T17:51:40.009Z,8.80
2023-01-06T17:56:11.187Z,8.70
2023-01-06T18:00:36.134Z,8.70
2023-01-06T18:05:11.345Z,8.70
2023-01-06T18:09:33.058Z,8.70
2023-01-06T18:13:55.399Z,8.60
2023-01-06T18:18:24.083Z,8.60
2023-01-06T18:22:45.889Z,8.60
2023-01-06T18:27:24.094Z,8.60
2023-01-06T18:31:49.296Z,8.60
2023-01-06T18:36:11.075Z,8.60
2023-01-06T18:40:34.032Z,8.60
2023-01-06T18:45:07.988Z,8.60
2023-01-06T18:49:32.906Z,8.50
2023-01-06T18:53:54.486Z,8.30
2023-01-06T18:58:25.339Z,8.20
2023-01-06T19:02:52.052Z,8.30
2023-01-06T19:07:28.534Z,8.40
2023-01-06T19:12:30.638Z,8.40
2023-01-06T19:16:58.155Z,8.40
2023-01-06T19:21:21.009Z,8.30
2023-01-06T19:25:48.602Z,8.00
2023-01-06T19:30:13.881Z,7.80
2023-01-06T19:34:36.203Z,7.60
2023-01-06T19:39:02.599Z,7.50
2023-01-06T19:43:34.458Z,7.50
2023-01-06T19:47:58.864Z,7.60
2023-01-06T19:52:36.503Z,7.60
2023-01-06T19:56:58.624Z,7.60
2023-01-06T20:01:22.809Z,7.40
2023-01-06T20:05:44.626Z,7.30
2023-01-06T20:10:07.517Z,7.30
2023-01-06T20:14:29.633Z,7.30
2023-01-06T20:18:51.543Z,7.50
2023-01-06T20:23:13.287Z,7.60
2023-01-06T20:27:35.458Z,7.70
2023-01-06T20:31:57.210Z,7.80
2023-01-06T20:36:19.282Z,7.90
2023-01-06T20:40:40.988Z,7.90
2023-01-06T20:45:03.741Z,8.00
2023-01-06T20:51:00.532Z,8.00
2023-01-06T21:15:20.529Z,8.10
2023-01-06T21:19:42.725Z,8.20
2023-01-06T21:24:06.158Z,8.20
2023-01-06T21:28:28.189Z,8.20
2023-01-06T21:32:50.489Z,8.30
2023-01-06T21:37:12.425Z,8.30
2023-01-06T21:41:52.688Z,8.30
2023-01-06T21:46:17.554Z,8.30
2023-01-06T21:50:43.091Z,8.20
2023-01-06T21:55:15.629Z,8.20
2023-01-06T21:59:58.657Z,8.30
2023-01-06T22:04:20.540Z,8.30
2023-01-06T22:08:43.006Z,8.30
2023-01-06T22:13:05.394Z,8.30
2023-01-06T22:17:27.559Z,8.30
2023-01-06T22:21:49.705Z,8.30
2023-01-06T22:26:11.522Z,8.30
2023-01-06T22:30:33.523Z,8.20
2023-01-06T22:34:55.304Z,8.30
2023-01-06T22:39:17.495Z,8.30
2023-01-06T22:43:39.479Z,8.30
2023-01-06T22:48:02.323Z,8.30
2023-01-06T22:52:24.973Z,8.30
2023-01-06T22:56:47.056Z,8.30
2023-01-06T23:01:09.999Z,8.40
2023-01-06T23:05:31.869Z,8.40
2023-01-06T23:09:53.964Z,8.40
2023-01-06T23:14:16.897Z,8.40
2023-01-06T23:18:42.038Z,8.40
2023-01-06T23:23:04.045Z,8.40
2023-01-06T23:27:26.064Z,8.40
2023-01-06T23:31:48.083Z,8.50
2023-01-06T23:36:12.304Z,8.50
2023-01-06T23:40:34.113Z,8.50
2023-01-06T23:44:56.262Z,8.50
2023-01-06T23:49:18.525Z,8.60
2023-01-06T23:53:41.612Z,8.60
2023-01-06T23:58:03.917Z,8.50
